Time;durP1;ratioP1;P1;durP2;ratioP2;P2;SDS_P1;SDS_P2;PMS_P1;PMS_P2;Temp;Humidity;BMP_temperature;BMP_pressure;BME280_temperature;BME280_humidity;BME280_pressure;Samples;Min_cycle;Max_cycle;Signal;HPM_P1;HPM_P2
2022/09/22 00:01:06;;;;;;;2.55;1.10;;;;;;;9.99;61.62;101568.97;4971361;28;97680;-64
2022/09/22 00:03:46;;;;;;;2.50;1.15;;;;;;;9.99;61.18;101563.56;4954843;28;123988;-63
2022/09/22 00:06:14;;;;;;;2.50;0.77;;;;;;;9.98;61.34;101563.78;4975007;28;97779;-63
2022/09/22 00:08:43;;;;;;;3.03;0.90;;;;;;;9.98;61.94;101561.09;4959131;28;99610;-63
2022/09/22 00:11:22;;;;;;;2.88;0.93;;;;;;;9.95;61.36;101564.28;4975381;28;98015;-65
2022/09/22 00:13:54;;;;;;;1.95;1.00;;;;;;;9.93;61.70;101553.72;4971993;28;112287;-68
2022/09/22 00:16:25;;;;;;;3.50;1.13;;;;;;;9.91;61.44;101563.13;4984317;28;97452;-69
2022/09/22 00:18:51;;;;;;;3.08;1.20;;;;;;;9.90;62.21;101561.47;4957786;28;99583;-69
2022/09/22 00:21:20;;;;;;;2.10;1.10;;;;;;;9.86;61.58;101555.72;4959071;28;111037;-68
2022/09/22 00:23:47;;;;;;;1.40;0.68;;;;;;;9.83;61.73;101565.13;4974261;28;97540;-69
2022/09/22 00:26:21;;;;;;;2.58;1.08;;;;;;;9.82;62.15;101554.56;4940948;28;97493;-68
2022/09/22 00:28:50;;;;;;;2.28;0.80;;;;;;;9.80;61.90;101559.38;4957026;28;97748;-68
2022/09/22 00:31:20;;;;;;;2.63;1.10;;;;;;;9.79;61.85;101563.13;4938796;28;97948;-70
2022/09/22 00:33:46;;;;;;;2.67;0.90;;;;;;;9.76;61.58;101560.91;4974063;28;99194;-68
2022/09/22 00:36:16;;;;;;;1.20;0.70;;;;;;;9.71;61.48;101567.00;4938594;28;97398;-68
2022/09/22 00:38:42;;;;;;;1.65;0.73;;;;;;;9.69;61.95;101568.28;4955560;28;97942;-63
2022/09/22 00:41:14;;;;;;;2.95;0.82;;;;;;;9.66;61.54;101556.09;4939373;28;97086;-68
2022/09/22 00:43:42;;;;;;;1.98;0.70;;;;;;;9.64;61.84;101558.22;4955960;28;97135;-63
2022/09/22 00:46:19;;;;;;;4.07;1.17;;;;;;;9.62;61.53;101554.91;4942263;28;97289;-68
2022/09/22 00:48:53;;;;;;;1.17;0.43;;;;;;;9.58;62.37;101554.56;4957982;28;97826;-63
2022/09/22 00:51:23;;;;;;;1.38;0.80;;;;;;;9.55;61.97;101552.38;4973203;28;99566;-63
2022/09/22 00:53:49;;;;;;;1.45;0.60;;;;;;;9.53;61.67;101553.66;4957675;28;97795;-63
2022/09/22 00:56:22;;;;;;;2.22;0.98;;;;;;;9.49;61.86;101553.28;4956379;28;116533;-68
2022/09/22 00:58:53;;;;;;;1.63;0.50;;;;;;;9.45;62.20;101552.13;4941590;28;97617;-63
2022/09/22 01:01:19;;;;;;;2.60;0.82;;;;;;;9.43;61.94;101553.41;4974427;28;98108;-63
2022/09/22 01:03:45;;;;;;;5.63;0.90;;;;;;;9.40;61.66;101552.00;4968777;28;126012;-64
2022/09/22 01:06:15;;;;;;;1.60;0.77;;;;;;;9.38;61.95;101550.59;4945889;28;98008;-63
2022/09/22 01:08:43;;;;;;;1.83;0.90;;;;;;;9.35;61.85;101554.56;4954782;28;98064;-68
2022/09/22 01:11:12;;;;;;;1.95;0.50;;;;;;;9.31;61.92;101553.38;4970705;28;97980;-63
2022/09/22 01:14:31;;;;;;;1.85;0.60;;;;;;;9.23;61.58;101543.78;4941481;28;97376;-68
2022/09/22 01:17:25;;;;;;;1.38;0.60;;;;;;;9.20;61.94;101549.66;4960082;28;97928;-68
2022/09/22 01:20:05;;;;;;;1.65;0.65;;;;;;;9.16;62.25;101544.97;4985266;28;97764;-68
2022/09/22 01:23:05;;;;;;;1.88;0.80;;;;;;;9.11;62.01;101548.34;4955014;28;97653;-63
2022/09/22 01:26:08;;;;;;;2.50;0.82;;;;;;;9.06;61.40;101549.03;4954947;28;114714;-68
2022/09/22 01:29:18;;;;;;;1.75;0.60;;;;;;;9.01;61.88;101540.03;4977626;28;97903;-62
2022/09/22 01:32:12;;;;;;;1.23;0.50;;;;;;;8.98;62.01;101538.59;4976343;28;97854;-62
2022/09/22 01:34:44;;;;;;;;;;;;;;;8.91;61.42;101539.75;4940810;28;97856;-68
2022/09/22 01:37:28;;;;;;;1.80;0.52;;;;;;;8.89;62.25;101539.19;4974262;28;97365;-63
2022/09/22 01:40:13;;;;;;;1.83;0.47;;;;;;;8.87;62.49;101539.41;4957624;28;97997;-68
2022/09/22 01:42:50;;;;;;;1.10;0.50;;;;;;;8.84;61.97;101535.31;4945868;28;99503;-62
2022/09/22 01:45:21;;;;;;;2.25;0.60;;;;;;;8.83;62.25;101528.28;4964992;28;99765;-68
2022/09/22 01:48:16;;;;;;;2.20;0.40;;;;;;;8.79;61.84;101531.66;4961170;28;97531;-62
2022/09/22 01:50:51;;;;;;;1.33;0.45;;;;;;;8.79;61.97;101529.78;4949648;28;98218;-68
2022/09/22 01:53:20;;;;;;;1.13;0.50;;;;;;;8.76;62.02;101535.66;4928426;28;97726;-62
2022/09/22 01:55:57;;;;;;;1.92;0.50;;;;;;;8.75;61.62;101533.97;4955910;28;100074;-68
2022/09/22 01:58:30;;;;;;;1.73;0.50;;;;;;;8.73;61.84;101524.53;4961212;28;97118;-62
2022/09/22 02:01:14;;;;;;;1.60;0.47;;;;;;;8.70;61.36;101530.34;4945276;28;97641;-68
2022/09/22 02:04:07;;;;;;;1.85;0.35;;;;;;;8.63;61.46;101525.06;4944763;28;116840;-63
2022/09/22 02:07:08;;;;;;;1.30;0.50;;;;;;;8.58;62.03;101523.06;4931497;28;97937;-68
2022/09/22 02:09:35;;;;;;;3.50;0.70;;;;;;;8.57;62.28;101521.44;4932543;28;97960;-63
2022/09/22 02:12:02;;;;;;;2.38;0.63;;;;;;;8.53;62.12;101520.25;4942263;28;97682;-62
2022/09/22 02:14:28;;;;;;;2.60;0.55;;;;;;;8.49;62.38;101519.06;4943086;28;97606;-62
2022/09/22 02:16:56;;;;;;;1.50;0.43;;;;;;;8.46;62.22;101522.22;4958833;28;99789;-63
2022/09/22 02:19:36;;;;;;;1.65;0.47;;;;;;;8.39;62.00;101520.66;4958270;28;97453;-68
2022/09/22 02:22:04;;;;;;;2.47;0.38;;;;;;;8.39;62.21;101516.09;4944662;28;97680;-63
2022/09/22 02:24:39;;;;;;;1.75;0.50;;;;;;;8.33;61.80;101517.81;4960173;28;98297;-62
2022/09/22 02:27:22;;;;;;;2.13;0.55;;;;;;;8.30;62.14;101520.94;4959784;28;97703;-63
2022/09/22 02:29:54;;;;;;;1.60;0.60;;;;;;;8.28;62.13;101533.75;4959027;28;98946;-68
2022/09/22 02:32:22;;;;;;;1.02;0.45;;;;;;;8.28;62.11;101530.25;4956837;28;97901;-62
2022/09/22 02:34:48;;;;;;;2.45;0.40;;;;;;;8.26;62.24;101525.13;4938291;28;97792;-68
2022/09/22 02:37:38;;;;;;;1.25;0.40;;;;;;;8.25;62.23;101533.38;4975685;28;127231;-67
2022/09/22 02:40:52;;;;;;;2.22;0.70;;;;;;;8.22;61.99;101525.81;4972318;28;98271;-68
2022/09/22 02:43:52;;;;;;;1.50;0.60;;;;;;;8.21;61.75;101527.66;4956962;28;98796;-68
2022/09/22 02:46:30;;;;;;;2.60;0.40;;;;;;;8.21;62.27;101529.50;4965739;28;98725;-62
2022/09/22 02:49:06;;;;;;;1.10;0.60;;;;;;;8.14;61.83;101532.31;4958889;28;97902;-68
2022/09/22 02:51:33;;;;;;;2.08;0.70;;;;;;;8.11;62.04;101533.56;4958228;28;97625;-62
2022/09/22 02:54:01;;;;;;;2.35;0.93;;;;;;;8.07;62.67;101532.38;4943544;28;97955;-63
2022/09/22 02:56:27;;;;;;;2.78;0.90;;;;;;;8.03;62.15;101528.50;4941109;28;97567;-68
2022/09/22 02:58:54;;;;;;;2.58;0.88;;;;;;;8.01;62.53;101533.25;4957049;28;97755;-66
2022/09/22 03:01:20;;;;;;;1.63;0.50;;;;;;;8.01;62.18;101535.94;4941158;28;129909;-62
2022/09/22 03:03:47;;;;;;;1.52;0.50;;;;;;;7.99;62.37;101531.88;4941667;28;109467;-68
2022/09/22 03:06:14;;;;;;;1.75;0.52;;;;;;;7.96;62.44;101517.00;4942609;28;97565;-62
2022/09/22 03:08:40;;;;;;;1.95;0.60;;;;;;;7.92;62.26;101526.56;4941638;28;97657;-68
2022/09/22 03:11:06;;;;;;;2.67;0.70;;;;;;;7.90;62.22;101523.28;4944443;28;97751;-62
2022/09/22 03:13:35;;;;;;;3.22;0.73;;;;;;;7.88;62.76;101525.38;4934973;28;96853;-68
2022/09/22 03:16:02;;;;;;;5.40;0.93;;;;;;;7.86;62.45;101520.22;4957281;28;97765;-63
2022/09/22 03:18:28;;;;;;;1.80;0.50;;;;;;;7.85;62.48;101531.19;4945377;28;97815;-68
2022/09/22 03:20:56;;;;;;;1.75;0.68;;;;;;;7.83;62.23;101534.09;4925340;28;98097;-68
2022/09/22 03:23:22;;;;;;;2.13;0.60;;;;;;;7.83;62.32;101533.28;4932704;28;97454;-62
2022/09/22 03:25:48;;;;;;;1.92;0.75;;;;;;;7.87;62.17;101527.22;4917737;28;98454;-68
2022/09/22 03:28:14;;;;;;;1.95;0.68;;;;;;;7.87;62.24;101524.56;4934890;28;97775;-62
2022/09/22 03:30:41;;;;;;;1.60;0.70;;;;;;;7.90;62.40;101530.50;4935439;28;98066;-68
2022/09/22 03:33:09;;;;;;;1.05;0.45;;;;;;;7.90;62.59;101527.81;4957738;28;97486;-68
2022/09/22 03:35:36;;;;;;;2.03;0.52;;;;;;;7.91;62.05;101530.28;4953316;28;99928;-68
2022/09/22 03:38:02;;;;;;;2.70;0.60;;;;;;;7.92;61.90;101525.75;4969483;28;97838;-68
2022/09/22 03:40:30;;;;;;;0.85;0.32;;;;;;;7.88;62.01;101528.06;4966184;28;97487;-68
2022/09/22 03:42:56;;;;;;;1.40;0.60;;;;;;;7.86;62.33;101522.09;4920026;28;97661;-68
2022/09/22 03:45:23;;;;;;;1.80;0.57;;;;;;;7.87;62.10;101527.22;4932809;28;97443;-68
2022/09/22 03:47:49;;;;;;;1.70;0.55;;;;;;;7.85;61.85;101526.63;4953468;28;99833;-63
2022/09/22 03:50:17;;;;;;;2.22;0.70;;;;;;;7.83;62.12;101528.72;4913502;28;117077;-68
2022/09/22 03:52:43;;;;;;;2.70;0.70;;;;;;;7.80;62.18;101541.78;4940991;28;97814;-62
2022/09/22 03:55:11;;;;;;;2.45;1.00;;;;;;;7.73;62.22;101531.09;4969849;28;100282;-63
2022/09/22 03:57:38;;;;;;;2.20;0.70;;;;;;;7.71;62.50;101533.19;4937855;28;97808;-62
2022/09/22 04:00:05;;;;;;;2.17;0.90;;;;;;;7.72;62.25;101526.78;4956566;28;97362;-62
2022/09/22 04:02:31;;;;;;;2.17;0.85;;;;;;;7.71;61.78;101532.38;4949550;28;97373;-63
2022/09/22 04:04:58;;;;;;;3.35;0.90;;;;;;;7.68;62.12;101532.81;4943811;28;130558;-68
2022/09/22 04:07:25;;;;;;;2.58;1.02;;;;;;;7.67;62.05;101533.88;4907588;28;99593;-68
2022/09/22 04:09:52;;;;;;;2.22;0.80;;;;;;;7.66;62.18;101524.97;4970072;28;98097;-62
2022/09/22 04:12:18;;;;;;;3.05;0.80;;;;;;;7.63;62.24;101520.88;4945004;28;97211;-68
2022/09/22 04:14:44;;;;;;;3.30;0.65;;;;;;;7.61;62.33;101522.13;4932167;28;100022;-62
2022/09/22 04:17:10;;;;;;;2.05;0.75;;;;;;;7.60;61.96;101524.00;4953429;28;100030;-68
2022/09/22 04:19:36;;;;;;;3.40;0.90;;;;;;;7.58;62.10;101527.94;4951931;28;97843;-68
2022/09/22 04:22:03;;;;;;;2.78;0.85;;;;;;;7.53;62.20;101523.25;4974615;28;97318;-63
2022/09/22 04:24:31;;;;;;;2.15;0.88;;;;;;;7.51;62.45;101519.97;4933461;28;97644;-68
2022/09/22 04:26:58;;;;;;;2.38;0.93;;;;;;;7.47;62.26;101516.09;4938302;28;97731;-68
2022/09/22 04:29:24;;;;;;;3.38;1.15;;;;;;;7.44;62.28;101526.44;4925743;28;97876;-70
2022/09/22 04:31:50;;;;;;;1.52;0.63;;;;;;;7.44;62.04;101531.81;4948802;28;97397;-62
2022/09/22 04:34:19;;;;;;;3.03;1.02;;;;;;;7.44;62.17;101524.59;4924843;28;103887;-68
2022/09/22 04:36:45;;;;;;;3.15;1.02;;;;;;;7.45;62.28;101533.44;4941723;28;97781;-62
2022/09/22 04:39:11;;;;;;;2.97;1.05;;;;;;;7.40;62.15;101517.19;4938837;28;97629;-62
2022/09/22 04:41:37;;;;;;;1.95;0.80;;;;;;;7.34;62.35;101518.88;4958096;28;97649;-63
2022/09/22 04:44:05;;;;;;;2.38;1.00;;;;;;;7.32;62.54;101516.44;4945493;28;97770;-68
2022/09/22 04:46:32;;;;;;;2.15;0.90;;;;;;;7.35;62.48;101525.91;4942560;28;98086;-68
2022/09/22 04:48:58;;;;;;;1.48;0.50;;;;;;;7.37;62.32;101526.50;4933137;28;97450;-62
2022/09/22 04:51:24;;;;;;;1.58;0.57;;;;;;;7.37;62.55;101521.94;4960403;28;97590;-68
2022/09/22 04:53:51;;;;;;;2.10;0.68;;;;;;;7.39;62.65;101527.13;4940446;28;97803;-62
2022/09/22 04:56:27;;;;;;;2.00;0.63;;;;;;;7.41;62.40;101527.69;4925405;28;98199;-68
2022/09/22 04:58:54;;;;;;;2.03;0.73;;;;;;;7.45;62.78;101528.91;4924540;28;97367;-62
2022/09/22 05:01:20;;;;;;;3.05;0.75;;;;;;;7.47;62.36;101531.38;4922454;28;106838;-62
2022/09/22 05:03:53;;;;;;;3.00;0.90;;;;;;;7.49;62.33;101527.41;4918245;28;97715;-68
2022/09/22 05:06:19;;;;;;;1.95;1.10;;;;;;;7.48;62.16;101531.16;4939830;28;98007;-62
2022/09/22 05:08:47;;;;;;;3.30;1.02;;;;;;;7.53;62.26;101539.34;4923635;28;97698;-68
2022/09/22 05:11:14;;;;;;;2.30;1.08;;;;;;;7.54;62.03;101540.16;4961679;28;97432;-62
2022/09/22 05:13:41;;;;;;;2.17;0.82;;;;;;;7.57;62.28;101550.47;4934741;28;98034;-62
2022/09/22 05:16:19;;;;;;;3.90;1.05;;;;;;;7.60;61.80;101550.84;4920814;28;97765;-62
2022/09/22 05:18:49;;;;;;;1.95;0.77;;;;;;;7.63;62.11;101549.59;4958065;28;97961;-68
2022/09/22 05:21:20;;;;;;;2.38;0.90;;;;;;;7.66;62.46;101549.13;4969969;28;97468;-68
2022/09/22 05:23:47;;;;;;;1.70;0.73;;;;;;;7.72;62.01;101544.75;4956599;28;97868;-69
2022/09/22 05:26:13;;;;;;;2.55;0.95;;;;;;;7.75;61.93;101553.19;4961570;28;97919;-68
2022/09/22 05:28:40;;;;;;;2.35;0.70;;;;;;;7.80;62.11;101558.69;4942707;28;98094;-68
2022/09/22 05:31:07;;;;;;;1.90;0.80;;;;;;;7.82;62.06;101551.25;4955628;28;97565;-68
2022/09/22 05:33:33;;;;;;;1.48;0.73;;;;;;;7.84;62.44;101551.84;4959852;28;97661;-68
2022/09/22 05:36:01;;;;;;;4.10;0.95;;;;;;;7.87;62.18;101553.25;4957435;28;97610;-68
2022/09/22 05:38:27;;;;;;;1.60;0.60;;;;;;;7.90;61.84;101550.13;4922663;28;97914;-68
2022/09/22 05:40:55;;;;;;;2.72;0.82;;;;;;;7.94;62.02;101554.03;4965919;28;98261;-68
2022/09/22 05:43:21;;;;;;;3.00;1.05;;;;;;;8.01;61.91;101552.06;4956281;28;97864;-68
2022/09/22 05:45:48;;;;;;;4.85;1.02;;;;;;;8.09;61.59;101557.13;4928681;28;97710;-68
2022/09/22 05:48:15;;;;;;;4.78;1.17;;;;;;;8.11;62.01;101560.41;4928358;28;99688;-68
2022/09/22 05:50:44;;;;;;;2.05;0.75;;;;;;;8.16;61.74;101559.75;4961380;28;97615;-68
2022/09/22 05:53:12;;;;;;;2.28;0.88;;;;;;;8.22;62.06;101566.09;4944719;28;97826;-68
2022/09/22 05:55:40;;;;;;;2.83;1.30;;;;;;;8.27;61.50;101559.00;4944018;28;97914;-68
2022/09/22 05:58:08;;;;;;;3.17;1.20;;;;;;;8.29;61.80;101564.97;4928068;28;97942;-63
2022/09/22 06:00:35;;;;;;;7.20;1.23;;;;;;;8.34;61.62;101561.59;4911220;28;97380;-62
2022/09/22 06:03:01;;;;;;;2.22;1.10;;;;;;;8.40;61.80;101563.41;4939049;28;97876;-68
2022/09/22 06:05:27;;;;;;;2.10;0.90;;;;;;;8.45;61.29;101565.41;4952604;28;105627;-63
2022/09/22 06:08:02;;;;;;;3.22;1.48;;;;;;;8.48;61.11;101563.09;4927605;28;98020;-68
2022/09/22 06:10:35;;;;;;;2.42;0.85;;;;;;;8.55;61.10;101571.88;4945414;28;97762;-68
2022/09/22 06:13:03;;;;;;;2.13;0.80;;;;;;;8.63;61.20;101569.94;4964961;28;97447;-68
2022/09/22 06:15:32;;;;;;;2.17;0.82;;;;;;;8.68;61.29;101568.19;4923531;28;105408;-68
2022/09/22 06:17:59;;;;;;;1.20;0.50;;;;;;;8.78;61.46;101562.28;4944435;28;98894;-68
2022/09/22 06:20:26;;;;;;;2.08;0.77;;;;;;;8.81;61.34;101553.78;4939989;28;97840;-63
2022/09/22 06:22:53;;;;;;;1.63;0.70;;;;;;;8.93;61.37;101569.94;4923447;28;128282;-68
2022/09/22 06:25:20;;;;;;;1.98;0.55;;;;;;;8.98;60.81;101568.19;4955914;28;97734;-63
2022/09/22 06:27:56;;;;;;;1.00;0.47;;;;;;;9.07;60.95;101572.19;4967627;28;97532;-68
2022/09/22 06:30:22;;;;;;;1.23;0.50;;;;;;;9.20;60.70;101573.06;4956975;28;98021;-63
2022/09/22 06:32:54;;;;;;;1.77;0.50;;;;;;;9.26;60.38;101570.22;4924275;28;98023;-62
2022/09/22 06:35:20;;;;;;;1.63;0.55;;;;;;;9.35;60.60;101570.72;4929016;28;99647;-63
2022/09/22 06:37:55;;;;;;;2.03;0.68;;;;;;;9.43;60.38;101564.16;4955714;28;105836;-68
2022/09/22 06:40:23;;;;;;;1.23;0.60;;;;;;;9.54;60.28;101574.94;4947495;28;96943;-68
2022/09/22 06:42:50;;;;;;;3.40;0.80;;;;;;;9.64;59.97;101570.88;4956608;28;98208;-68
2022/09/22 06:45:18;;;;;;;2.35;0.85;;;;;;;9.73;60.38;101572.94;4956250;28;98167;-64
2022/09/22 06:47:45;;;;;;;1.42;0.60;;;;;;;9.77;60.27;101567.91;4933474;28;97467;-68
2022/09/22 06:50:12;;;;;;;2.22;0.88;;;;;;;9.87;60.53;101567.34;4960245;28;97471;-68
2022/09/22 06:52:38;;;;;;;2.67;0.82;;;;;;;9.86;60.00;101571.88;4940168;28;98061;-68
2022/09/22 06:55:05;;;;;;;2.25;0.73;;;;;;;9.83;60.70;101575.88;4939833;28;97854;-68
2022/09/22 06:57:31;;;;;;;1.95;0.70;;;;;;;9.87;60.70;101575.41;4963210;28;99416;-63
2022/09/22 07:00:02;;;;;;;2.03;0.85;;;;;;;10.03;60.37;101583.59;4948855;28;97719;-68
2022/09/22 07:02:29;;;;;;;1.70;0.70;;;;;;;10.23;59.88;101580.50;4936113;28;97733;-63
2022/09/22 07:04:58;;;;;;;1.40;0.70;;;;;;;10.36;59.92;101574.06;4916300;28;97864;-63
2022/09/22 07:07:30;;;;;;;2.00;1.02;;;;;;;10.43;60.36;101572.03;4925676;28;97583;-63
2022/09/22 07:09:58;;;;;;;3.53;1.20;;;;;;;10.43;60.17;101571.22;4939690;28;96893;-68
2022/09/22 07:12:25;;;;;;;2.28;1.17;;;;;;;10.44;60.02;101583.63;4939385;28;97682;-69
2022/09/22 07:14:55;;;;;;;1.95;1.13;;;;;;;10.51;60.19;101585.16;4960612;28;97752;-69
2022/09/22 07:17:22;;;;;;;2.33;1.17;;;;;;;10.52;60.45;101580.56;4962628;28;97730;-63
2022/09/22 07:19:50;;;;;;;3.05;1.20;;;;;;;10.50;60.00;101580.00;4956055;28;97460;-69
2022/09/22 07:22:18;;;;;;;2.03;0.82;;;;;;;10.52;60.50;101581.38;4959119;28;97510;-64
2022/09/22 07:24:46;;;;;;;3.55;1.10;;;;;;;10.59;60.28;101575.03;4953784;28;97683;-69
2022/09/22 07:27:21;;;;;;;2.63;1.02;;;;;;;10.68;60.30;101579.78;4957286;28;98123;-68
2022/09/22 07:29:48;;;;;;;1.75;0.88;;;;;;;10.74;60.00;101578.84;4959759;28;97444;-63
2022/09/22 07:32:15;;;;;;;2.38;1.17;;;;;;;10.89;60.32;101582.91;4965989;28;97915;-63
2022/09/22 07:34:42;;;;;;;2.58;0.95;;;;;;;11.05;59.92;101580.22;4955286;28;97920;-69
2022/09/22 07:37:10;;;;;;;2.08;0.90;;;;;;;11.24;59.89;101585.41;4944821;28;97816;-63
2022/09/22 07:39:38;;;;;;;2.10;1.23;;;;;;;11.40;59.80;101573.78;4966814;28;97560;-69
2022/09/22 07:42:05;;;;;;;2.47;1.27;;;;;;;11.46;59.81;101574.66;4975713;28;97839;-69
2022/09/22 07:48:34;;;;;;;2.00;1.13;;;;;;;12.26;58.04;101582.31;4953909;28;97593;-63
2022/09/22 07:50:03;;;;;;;3.20;0.98;;;;;;;12.81;57.95;101590.47;4958970;28;97685;-64
2022/09/22 07:52:30;;;;;;;2.25;1.15;;;;;;;13.20;57.12;101581.13;4947462;28;98027;-69
2022/09/22 07:54:56;;;;;;;2.03;1.00;;;;;;;13.50;57.00;101583.28;4957721;28;97657;-69
2022/09/22 07:57:22;;;;;;;2.15;1.05;;;;;;;13.63;56.85;101576.59;4959076;28;97599;-62
2022/09/22 07:59:49;;;;;;;2.72;1.40;;;;;;;13.77;57.26;101576.16;4959420;28;97935;-68
2022/09/22 08:02:16;;;;;;;3.63;1.40;;;;;;;13.95;56.99;101570.28;4943155;28;97783;-68
2022/09/22 08:04:42;;;;;;;1.80;1.08;;;;;;;14.18;56.65;101577.16;4940860;28;109247;-63
2022/09/22 08:07:13;;;;;;;2.85;1.20;;;;;;;14.46;56.46;101579.47;4943483;28;97793;-69
2022/09/22 08:09:39;;;;;;;1.75;0.80;;;;;;;14.82;55.84;101574.16;4959411;28;96919;-64
2022/09/22 08:12:09;;;;;;;2.55;1.13;;;;;;;15.37;55.14;101578.00;4937036;28;109213;-69
2022/09/22 08:14:36;;;;;;;1.83;0.90;;;;;;;16.33;53.82;101572.59;4937173;28;97460;-69
2022/09/22 08:17:02;;;;;;;1.60;0.77;;;;;;;16.76;53.43;101576.47;4940691;28;97429;-64
2022/09/22 08:19:29;;;;;;;2.35;0.80;;;;;;;17.35;52.68;101580.94;4957186;28;97410;-64
2022/09/22 08:21:55;;;;;;;1.88;0.90;;;;;;;17.94;52.09;101579.03;4957196;28;98294;-64
2022/09/22 08:24:25;;;;;;;1.75;0.85;;;;;;;18.17;52.00;101582.84;4940641;28;101253;-69
2022/09/22 08:26:54;;;;;;;2.45;1.00;;;;;;;18.86;50.83;101580.56;4958123;28;97979;-71
2022/09/22 08:29:21;;;;;;;1.70;0.85;;;;;;;19.34;50.33;101577.66;4955962;28;97895;-65
2022/09/22 08:31:48;;;;;;;1.55;0.82;;;;;;;19.78;49.76;101592.75;4955560;28;99617;-64
2022/09/22 08:34:16;;;;;;;2.30;0.70;;;;;;;20.18;49.58;101582.91;4940171;28;97752;-65
2022/09/22 08:36:45;;;;;;;1.58;0.57;;;;;;;20.50;49.16;101587.47;4941476;28;97364;-70
2022/09/22 08:39:11;;;;;;;1.42;0.60;;;;;;;20.73;48.81;101590.25;4960692;28;97822;-70
2022/09/22 08:41:55;;;;;;;1.38;0.70;;;;;;;20.96;49.23;101593.84;4941114;28;97978;-70
2022/09/22 08:44:29;;;;;;;1.48;0.50;;;;;;;21.16;48.64;101593.34;4973109;28;99580;-70
2022/09/22 08:46:58;;;;;;;1.85;0.30;;;;;;;21.33;48.06;101592.69;4958800;28;97827;-65
2022/09/22 08:52:49;;;;;;;1.33;0.47;;;;;;;21.72;48.57;101591.13;4973458;28;96965;-65
2022/09/22 08:55:25;;;;;;;2.08;0.50;;;;;;;21.81;48.21;101589.22;4937467;28;97714;-70
2022/09/22 08:58:36;;;;;;;0.98;0.40;;;;;;;21.95;48.07;101589.13;4958166;28;96901;-65
2022/09/22 09:01:16;;;;;;;1.05;0.30;;;;;;;22.10;47.89;101590.63;4952109;28;97737;-70
2022/09/22 09:04:10;;;;;;;1.10;0.22;;;;;;;22.28;47.79;101587.66;4950894;28;97859;-66
2022/09/22 09:06:54;;;;;;;1.13;0.22;;;;;;;22.53;47.49;101579.78;4961273;28;97804;-65
2022/09/22 09:10:09;;;;;;;1.38;0.30;;;;;;;22.66;47.24;101580.75;4958293;28;97831;-65
2022/09/22 09:13:08;;;;;;;0.65;0.17;;;;;;;22.86;47.09;101582.06;4956827;28;97637;-65
2022/09/22 09:16:17;;;;;;;0.68;0.20;;;;;;;22.98;46.04;101571.25;4947578;28;97797;-65
2022/09/22 09:18:49;;;;;;;0.70;0.13;;;;;;;23.13;46.04;101580.94;4976832;28;100084;-65
2022/09/22 09:21:16;;;;;;;0.30;0.10;;;;;;;23.28;44.83;101575.72;4975491;28;97846;-65
2022/09/22 09:23:51;;;;;;;0.40;0.10;;;;;;;23.47;44.99;101574.56;4945329;28;97606;-65
2022/09/22 09:26:17;;;;;;;0.50;0.10;;;;;;;23.70;44.53;101566.91;4937527;28;97806;-65
2022/09/22 09:28:49;;;;;;;0.90;0.15;;;;;;;24.01;44.39;101569.34;4959498;28;97727;-65
2022/09/22 09:31:36;;;;;;;0.38;0.10;;;;;;;24.45;44.09;101562.47;4957655;28;98925;-65
2022/09/22 09:34:07;;;;;;;0.32;0.10;;;;;;;25.00;43.00;101568.03;4972898;28;97498;-65
2022/09/22 09:36:50;;;;;;;0.40;0.10;;;;;;;25.51;42.34;101560.38;4958641;28;97953;-66
2022/09/22 09:39:35;;;;;;;0.70;0.20;;;;;;;26.11;41.85;101559.63;4958558;28;99909;-66
2022/09/22 09:42:24;;;;;;;0.40;0.10;;;;;;;26.50;39.93;101560.03;4973511;28;98109;-70
2022/09/22 09:44:54;;;;;;;0.38;0.10;;;;;;;26.88;40.02;101562.34;4959222;28;98362;-70
2022/09/22 09:47:57;;;;;;;0.95;0.10;;;;;;;27.22;40.42;101560.13;4942173;28;99913;-70
2022/09/22 09:50:30;;;;;;;0.88;0.10;;;;;;;27.39;40.01;101553.44;4973538;28;98190;-71
2022/09/22 09:53:02;;;;;;;0.47;0.17;;;;;;;27.78;39.74;101550.88;4956208;28;97603;-71
2022/09/22 09:55:32;;;;;;;0.77;0.20;;;;;;;28.20;37.98;101551.09;4935937;28;97361;-71
2022/09/22 09:58:10;;;;;;;0.47;0.10;;;;;;;28.48;38.48;101547.38;4940210;28;97686;-66
2022/09/22 10:00:57;;;;;;;1.83;0.25;;;;;;;28.97;38.27;101539.28;4959444;28;97832;-66
2022/09/22 10:03:31;;;;;;;0.80;0.30;;;;;;;29.18;36.58;101530.56;4987932;28;97404;-66
2022/09/22 10:06:01;;;;;;;0.93;0.30;;;;;;;29.65;36.43;101531.38;4945163;28;98138;-66
2022/09/22 10:08:35;;;;;;;0.70;0.20;;;;;;;30.17;35.81;101540.91;4977004;28;97899;-66
2022/09/22 10:11:01;;;;;;;0.40;0.10;;;;;;;30.62;35.54;101536.34;4955667;28;97681;-66
2022/09/22 10:13:31;;;;;;;0.40;0.13;;;;;;;31.16;34.80;101537.75;4942716;28;97005;-67
2022/09/22 10:16:22;;;;;;;0.68;0.10;;;;;;;31.70;34.71;101534.28;4963443;28;97824;-67
2022/09/22 10:19:20;;;;;;;1.03;0.20;;;;;;;32.38;33.50;101531.91;4959940;28;97798;-67
2022/09/22 10:21:54;;;;;;;1.25;0.10;;;;;;;33.20;32.57;101523.03;4958765;28;97625;-68
2022/09/22 10:24:32;;;;;;;0.30;0.10;;;;;;;33.82;31.84;101521.84;4936999;28;97496;-70
2022/09/22 10:26:58;;;;;;;0.30;0.10;;;;;;;34.56;30.89;101520.06;4957857;28;111780;-70
2022/09/22 10:29:24;;;;;;;0.35;0.13;;;;;;;35.22;30.10;101517.28;4942468;28;98750;-67
2022/09/22 10:32:03;;;;;;;0.60;0.10;;;;;;;35.99;30.04;101508.56;4938819;28;99995;-67
2022/09/22 10:34:36;;;;;;;0.50;0.10;;;;;;;36.35;28.94;101510.94;4975322;28;97648;-67
2022/09/22 10:37:09;;;;;;;0.32;0.10;;;;;;;35.48;29.80;101495.44;4974850;28;97594;-70
2022/09/22 10:39:50;;;;;;;0.13;0.00;;;;;;;31.79;34.02;101494.91;4961019;28;99518;-66
2022/09/22 10:42:42;;;;;;;0.40;0.10;;;;;;;29.55;35.78;101491.09;4944939;28;97607;-70
2022/09/22 10:45:18;;;;;;;0.40;0.10;;;;;;;27.93;36.51;101489.13;4927377;28;99307;-66
2022/09/22 10:48:32;;;;;;;0.43;0.10;;;;;;;26.51;37.44;101484.25;4976269;28;97841;-71
2022/09/22 10:51:41;;;;;;;0.60;0.10;;;;;;;25.15;38.56;101482.72;4991233;28;110085;-66
2022/09/22 10:54:28;;;;;;;0.20;0.10;;;;;;;24.19;39.01;101481.94;4963303;28;97441;-65
2022/09/22 10:56:58;;;;;;;0.47;0.10;;;;;;;23.44;38.94;101489.94;4978704;28;97676;-65
2022/09/22 10:59:43;;;;;;;0.50;0.10;;;;;;;22.77;40.15;101485.88;4973964;28;97700;-65
2022/09/22 11:02:20;;;;;;;0.45;0.10;;;;;;;22.20;40.07;101492.31;4977254;28;97680;-64
2022/09/22 11:12:15;;;;;;;0.40;0.10;;;;;;;20.95;41.08;101486.16;4885887;28;97638;-64
2022/09/22 11:15:12;;;;;;;0.68;0.10;;;;;;;20.82;40.84;101487.03;4964143;28;97704;-64
2022/09/22 11:18:17;;;;;;;0.00;0.00;;;;;;;21.32;39.80;101476.72;4958922;28;97705;-71
2022/09/22 11:20:51;;;;;;;0.17;0.00;;;;;;;21.39;39.50;101486.44;4974897;28;99843;-64
2022/09/22 11:23:45;;;;;;;0.15;0.00;;;;;;;24.54;35.75;101476.97;4959204;28;97482;-69
2022/09/22 11:26:37;;;;;;;0.90;0.10;;;;;;;27.55;32.82;101487.00;4991020;28;98101;-65
2022/09/22 11:29:27;;;;;;;0.20;0.00;;;;;;;29.49;31.64;101503.72;4974637;28;97704;-66
2022/09/22 11:32:21;;;;;;;0.50;0.10;;;;;;;27.40;34.86;101497.75;4992162;28;97327;-70
2022/09/22 11:35:05;;;;;;;0.50;0.10;;;;;;;29.44;32.13;101479.84;4975985;28;98197;-70
2022/09/22 11:38:01;;;;;;;0.10;0.00;;;;;;;30.59;31.48;101487.03;4977838;28;98423;-69
2022/09/22 11:40:55;;;;;;;0.35;0.10;;;;;;;31.28;30.22;101488.16;4966840;28;97767;-70
2022/09/22 11:43:57;;;;;;;0.40;0.10;;;;;;;31.90;30.48;101487.47;4990709;28;98606;-69
2022/09/22 11:47:07;;;;;;;0.20;0.10;;;;;;;32.00;30.89;101477.56;4975993;28;97737;-66
2022/09/22 11:49:50;;;;;;;0.55;0.10;;;;;;;31.94;30.83;101471.56;4975930;28;98252;-71
2022/09/22 11:53:01;;;;;;;0.10;0.00;;;;;;;31.73;30.95;101463.06;4958986;28;104463;-70
2022/09/22 11:56:10;;;;;;;0.30;0.00;;;;;;;28.00;34.84;101461.59;4958446;28;97544;-69
2022/09/22 11:58:39;;;;;;;0.20;0.00;;;;;;;26.46;34.86;101454.13;4990751;28;97376;-70
2022/09/22 12:01:09;;;;;;;2.55;0.10;;;;;;;26.46;34.39;101453.31;4973699;28;97601;-65
2022/09/22 12:03:39;;;;;;;0.10;0.05;;;;;;;27.13;33.76;101448.81;4953541;28;98090;-65
2022/09/22 12:06:08;;;;;;;0.20;0.00;;;;;;;27.85;32.10;101434.75;4957893;28;99853;-70
2022/09/22 12:08:52;;;;;;;0.60;0.10;;;;;;;28.25;32.45;101441.91;4956357;28;97580;-69
2022/09/22 12:11:19;;;;;;;0.70;0.00;;;;;;;28.23;31.96;101438.72;4958382;28;98011;-71
2022/09/22 12:19:20;;;;;;;0.35;0.00;;;;;;;24.95;35.55;101433.91;5702813;22;100070;-69